Time;durP1;ratioP1;P1;durP2;ratioP2;P2;SDS_P1;SDS_P2;PMS_P1;PMS_P2;Temp;Humidity;BMP_temperature;BMP_pressure;BME280_temperature;BME280_humidity;BME280_pressure;Samples;Min_cycle;Max_cycle;Signal;HPM_P1;HPM_P2
2022/03/31 00:00:31;;;;;;;11.30;2.33;;;2.20;99.90;;;;;;5037076;28;20094;-84
2022/03/31 00:02:57;;;;;;;9.47;2.13;;;2.20;99.90;;;;;;5036986;28;20069;-84
2022/03/31 00:05:23;;;;;;;14.00;2.50;;;2.20;99.90;;;;;;5055139;28;20049;-84
2022/03/31 00:07:51;;;;;;;7.13;2.10;;;2.20;99.90;;;;;;5037140;28;20052;-84
2022/03/31 00:10:21;;;;;;;10.33;2.30;;;2.20;99.90;;;;;;5054945;28;20048;-84
2022/03/31 00:12:47;;;;;;;10.73;2.27;;;2.20;99.90;;;;;;5055208;28;20469;-84
2022/03/31 00:15:13;;;;;;;8.67;2.87;;;2.20;99.90;;;;;;5054299;28;20048;-85
2022/03/31 00:17:38;;;;;;;7.00;2.20;;;2.20;99.90;;;;;;5037474;28;20079;-85
2022/03/31 00:20:05;;;;;;;9.10;2.00;;;2.10;99.90;;;;;;5037199;28;20049;-84
2022/03/31 00:22:30;;;;;;;6.83;2.03;;;2.10;99.90;;;;;;5036253;28;20056;-84
2022/03/31 00:24:56;;;;;;;9.93;2.30;;;2.10;99.90;;;;;;5055130;28;20033;-84
2022/03/31 00:27:22;;;;;;;6.93;2.30;;;2.10;99.90;;;;;;5054729;28;20480;-84
2022/03/31 00:29:47;;;;;;;10.03;2.97;;;2.00;99.90;;;;;;5053895;28;20044;-84
2022/03/31 00:32:13;;;;;;;11.47;2.40;;;2.00;99.90;;;;;;5036785;28;20040;-85
2022/03/31 00:34:39;;;;;;;7.77;2.20;;;2.00;99.90;;;;;;5036785;28;20041;-84
2022/03/31 00:37:05;;;;;;;8.67;2.20;;;2.00;99.90;;;;;;5036145;28;20044;-84
2022/03/31 00:39:34;;;;;;;8.50;2.23;;;2.90;99.90;;;;;;5053898;28;20381;-84
2022/03/31 00:42:03;;;;;;;8.93;2.20;;;2.80;99.90;;;;;;5036297;28;20053;-84
2022/03/31 00:44:30;;;;;;;8.93;2.10;;;2.10;99.90;;;;;;5053797;28;20040;-84
2022/03/31 00:46:57;;;;;;;8.50;1.97;;;2.10;99.90;;;;;;5054463;28;20052;-84
2022/03/31 00:49:25;;;;;;;8.77;2.00;;;2.00;99.90;;;;;;5036490;28;20063;-84
2022/03/31 00:51:52;;;;;;;5.60;1.70;;;2.00;99.90;;;;;;5053099;28;20045;-84
2022/03/31 00:54:25;;;;;;;6.33;2.20;;;1.90;99.90;;;;;;5035854;28;20040;-84
2022/03/31 00:56:51;;;;;;;8.83;2.00;;;2.00;99.90;;;;;;5052850;28;20044;-83
2022/03/31 00:59:18;;;;;;;9.23;2.30;;;1.90;99.90;;;;;;5035742;28;20120;-84
2022/03/31 01:01:46;;;;;;;7.47;1.90;;;1.90;99.90;;;;;;5054152;28;20033;-84
2022/03/31 01:04:13;;;;;;;6.50;2.03;;;1.80;99.90;;;;;;5053202;28;20045;-84
2022/03/31 01:06:40;;;;;;;7.60;1.93;;;1.70;99.90;;;;;;5035358;28;20194;-84
2022/03/31 01:09:06;;;;;;;7.77;2.10;;;1.70;99.90;;;;;;5054661;28;20048;-84
2022/03/31 01:11:32;;;;;;;8.10;1.97;;;1.60;99.90;;;;;;5035490;28;20049;-85
2022/03/31 01:13:58;;;;;;;7.03;1.60;;;1.60;99.90;;;;;;5054313;28;20126;-84
2022/03/31 01:16:24;;;;;;;7.27;1.90;;;1.40;99.90;;;;;;5036374;28;20037;-84
2022/03/31 01:18:51;;;;;;;7.30;1.90;;;1.40;99.90;;;;;;5053763;28;20492;-84
2022/03/31 01:21:17;;;;;;;6.20;1.97;;;1.40;99.90;;;;;;5035394;28;20384;-83
2022/03/31 01:23:46;;;;;;;7.77;1.97;;;1.20;99.90;;;;;;5053408;28;20393;-84
2022/03/31 01:26:12;;;;;;;9.43;2.20;;;1.20;99.90;;;;;;5052886;28;20080;-83
2022/03/31 01:28:43;;;;;;;8.97;2.40;;;1.20;99.90;;;;;;5053953;28;20464;-84
2022/03/31 01:31:10;;;;;;;8.27;2.00;;;1.20;99.90;;;;;;5035685;28;20427;-83
2022/03/31 01:33:37;;;;;;;8.07;2.17;;;1.40;99.90;;;;;;5034820;28;20060;-84
2022/03/31 01:36:04;;;;;;;6.83;2.10;;;1.10;99.90;;;;;;5035279;28;20080;-83
2022/03/31 01:38:30;;;;;;;7.63;2.10;;;1.10;99.90;;;;;;5034564;28;20049;-83
2022/03/31 01:40:57;;;;;;;11.17;2.47;;;1.10;99.90;;;;;;5052443;28;20579;-83
2022/03/31 01:43:22;;;;;;;12.13;2.70;;;1.10;99.90;;;;;;5035348;28;20044;-84
2022/03/31 01:45:49;;;;;;;11.07;2.90;;;1.30;99.90;;;;;;5053517;28;20045;-84
2022/03/31 01:48:16;;;;;;;9.03;2.77;;;1.60;99.90;;;;;;5034653;28;20040;-84
2022/03/31 01:50:42;;;;;;;9.43;2.60;;;1.10;99.90;;;;;;5052533;28;20393;-84
2022/03/31 01:53:08;;;;;;;10.60;3.60;;;1.20;99.90;;;;;;5051655;28;20053;-84
2022/03/31 01:55:34;;;;;;;12.17;3.27;;;1.20;99.90;;;;;;5053033;28;20044;-84
2022/03/31 01:58:00;;;;;;;10.60;2.73;;;1.20;99.90;;;;;;5053251;28;20176;-84
2022/03/31 02:00:26;;;;;;;10.33;3.23;;;1.10;99.90;;;;;;5052065;28;20781;-84
2022/03/31 02:02:51;;;;;;;11.00;2.87;;;1.20;99.90;;;;;;5053436;28;20526;-84
2022/03/31 02:05:17;;;;;;;10.03;3.50;;;1.10;99.90;;;;;;5052149;28;20056;-84
2022/03/31 02:07:43;;;;;;;10.53;3.30;;;1.10;99.90;;;;;;5051094;28;20396;-84
2022/03/31 02:10:11;;;;;;;11.97;3.40;;;1.60;99.90;;;;;;5052910;28;20051;-84
2022/03/31 02:12:36;;;;;;;10.17;3.37;;;1.10;99.90;;;;;;5052251;28;20044;-84
2022/03/31 02:15:03;;;;;;;11.73;3.80;;;1.30;99.90;;;;;;5033861;28;20053;-83
2022/03/31 02:17:30;;;;;;;10.97;4.03;;;1.20;99.90;;;;;;5034574;28;20170;-84
2022/03/31 02:19:56;;;;;;;12.20;4.30;;;1.20;99.90;;;;;;5034859;28;20052;-84
2022/03/31 02:22:22;;;;;;;12.73;4.87;;;1.20;99.90;;;;;;5033635;28;20033;-84
2022/03/31 02:24:48;;;;;;;15.50;5.37;;;1.20;99.90;;;;;;5053018;28;20095;-84
2022/03/31 02:27:14;;;;;;;14.60;5.87;;;1.20;99.90;;;;;;5034644;28;20508;-83
2022/03/31 02:29:40;;;;;;;14.60;6.27;;;1.30;99.90;;;;;;5067499;28;20048;-83
2022/03/31 02:32:07;;;;;;;13.87;5.63;;;1.30;99.90;;;;;;5052813;28;20068;-84
2022/03/31 02:34:34;;;;;;;16.20;6.67;;;1.30;99.90;;;;;;5034359;28;20473;-84
2022/03/31 02:37:00;;;;;;;13.97;6.23;;;1.30;99.90;;;;;;5051602;28;20131;-83
2022/03/31 02:39:28;;;;;;;13.63;6.33;;;1.30;99.90;;;;;;5034604;28;20454;-83
2022/03/31 02:41:57;;;;;;;14.73;6.67;;;1.40;99.90;;;;;;5052293;28;20057;-83
2022/03/31 02:44:23;;;;;;;18.70;6.13;;;1.30;99.90;;;;;;5033362;28;20136;-83
2022/03/31 02:46:49;;;;;;;18.30;6.40;;;1.40;99.90;;;;;;5052467;28;20044;-83
2022/03/31 02:49:14;;;;;;;14.77;6.33;;;1.40;99.90;;;;;;5034198;28;20045;-83
2022/03/31 02:51:40;;;;;;;16.57;6.70;;;1.40;99.90;;;;;;5051347;28;20098;-83
2022/03/31 02:56:50;;;;;;;;;;;1.50;99.90;;;;;;5052189;28;20088;-83
2022/03/31 02:59:15;;;;;;;14.43;5.77;;;1.40;99.90;;;;;;5034392;28;19958;-83
2022/03/31 03:01:43;;;;;;;14.47;6.00;;;1.40;99.90;;;;;;5067619;28;20049;-83
2022/03/31 03:04:09;;;;;;;13.43;5.20;;;1.40;99.90;;;;;;5051358;28;20037;-83
2022/03/31 03:06:36;;;;;;;11.87;4.77;;;2.40;99.90;;;;;;5051627;28;20106;-83
2022/03/31 03:09:03;;;;;;;14.07;6.00;;;1.30;99.90;;;;;;5034776;28;20044;-83
2022/03/31 03:11:29;;;;;;;14.30;5.53;;;1.40;99.90;;;;;;5033732;28;20063;-83
2022/03/31 03:13:54;;;;;;;11.90;5.20;;;1.30;99.90;;;;;;5034393;28;20473;-83
2022/03/31 03:16:21;;;;;;;14.40;6.70;;;1.30;99.90;;;;;;5066706;28;20057;-83
2022/03/31 03:18:46;;;;;;;15.00;6.77;;;2.30;99.90;;;;;;5052024;28;20048;-83
2022/03/31 03:21:12;;;;;;;15.03;6.60;;;1.90;99.90;;;;;;5055690;28;20392;-83
2022/03/31 03:23:39;;;;;;;15.27;6.80;;;2.00;99.90;;;;;;5056201;28;20094;-83
2022/03/31 03:26:06;;;;;;;15.13;6.73;;;2.50;99.90;;;;;;5037270;28;20053;-83
2022/03/31 03:28:34;;;;;;;16.33;7.00;;;1.40;99.90;;;;;;5055713;28;20159;-83
2022/03/31 03:31:00;;;;;;;16.70;6.93;;;2.20;99.90;;;;;;5037848;28;20041;-83
2022/03/31 03:33:25;;;;;;;16.73;7.17;;;1.90;99.90;;;;;;5055545;28;20093;-84
2022/03/31 03:35:51;;;;;;;16.63;6.80;;;1.40;99.90;;;;;;5055306;28;20053;-83
2022/03/31 03:38:17;;;;;;;15.43;7.43;;;2.40;99.90;;;;;;5037199;28;20045;-84
2022/03/31 03:40:43;;;;;;;15.87;6.50;;;2.00;99.90;;;;;;5036788;28;20053;-83
2022/03/31 03:43:09;;;;;;;15.87;6.67;;;1.50;99.90;;;;;;5038155;28;20466;-83
2022/03/31 03:45:36;;;;;;;16.23;7.10;;;1.50;99.90;;;;;;5037732;28;20049;-83
2022/03/31 03:48:03;;;;;;;15.90;7.00;;;1.90;99.90;;;;;;5055014;28;20041;-83
2022/03/31 03:50:29;;;;;;;15.73;7.00;;;1.50;99.90;;;;;;5037289;28;20056;-83
2022/03/31 03:52:55;;;;;;;16.77;7.63;;;1.50;99.90;;;;;;5036813;28;20049;-83
2022/03/31 03:55:23;;;;;;;17.90;7.47;;;1.40;99.90;;;;;;5037042;28;20143;-83
2022/03/31 03:57:48;;;;;;;16.37;7.03;;;1.50;99.90;;;;;;5055508;28;20044;-84
2022/03/31 04:00:14;;;;;;;18.87;8.17;;;1.50;99.90;;;;;;5053790;28;20091;-83
2022/03/31 04:02:41;;;;;;;19.03;7.70;;;1.50;99.90;;;;;;5061826;28;20396;-84
2022/03/31 04:05:07;;;;;;;17.87;7.63;;;2.00;99.90;;;;;;5054220;28;20048;-84
2022/03/31 04:07:33;;;;;;;19.17;7.83;;;1.50;99.90;;;;;;5053375;28;20041;-84
2022/03/31 04:09:58;;;;;;;17.93;8.00;;;2.90;99.90;;;;;;5055347;28;20033;-84
2022/03/31 04:12:24;;;;;;;19.00;7.77;;;1.50;99.90;;;;;;5055106;28;20048;-84
2022/03/31 04:14:49;;;;;;;16.00;8.23;;;2.10;99.90;;;;;;5053155;28;20380;-84
2022/03/31 04:17:16;;;;;;;15.03;6.47;;;2.30;99.90;;;;;;5053328;28;20136;-83
2022/03/31 04:19:43;;;;;;;18.80;7.97;;;1.50;99.90;;;;;;5054742;28;20041;-84
2022/03/31 04:22:09;;;;;;;21.83;8.87;;;2.20;99.90;;;;;;5054040;28;20041;-84
2022/03/31 04:24:35;;;;;;;17.80;8.27;;;1.50;99.90;;;;;;5053541;28;20045;-84
2022/03/31 04:27:01;;;;;;;18.43;7.87;;;1.50;99.90;;;;;;5054806;28;20052;-84
2022/03/31 04:29:27;;;;;;;19.30;8.83;;;1.50;99.90;;;;;;5052357;28;20044;-83
2022/03/31 04:31:53;;;;;;;19.37;8.83;;;1.40;99.90;;;;;;5052265;28;20055;-84
2022/03/31 04:34:19;;;;;;;20.33;9.40;;;1.50;99.90;;;;;;5053814;28;20033;-83
2022/03/31 04:36:46;;;;;;;19.43;9.07;;;1.50;99.90;;;;;;5054154;28;20045;-84
2022/03/31 04:39:13;;;;;;;20.27;8.47;;;1.50;99.90;;;;;;5054707;28;20041;-84
2022/03/31 04:41:40;;;;;;;19.77;9.57;;;1.50;99.90;;;;;;5054336;28;20057;-84
2022/03/31 04:44:06;;;;;;;19.20;8.63;;;1.50;99.90;;;;;;5053955;28;20049;-84
2022/03/31 04:46:33;;;;;;;17.80;8.30;;;1.50;99.90;;;;;;5052830;28;20040;-84
2022/03/31 04:49:00;;;;;;;18.87;8.70;;;1.50;99.90;;;;;;5051907;28;20082;-84
2022/03/31 04:51:25;;;;;;;18.00;8.63;;;2.50;99.90;;;;;;5053841;28;20029;-84
2022/03/31 04:53:51;;;;;;;17.70;8.70;;;2.60;99.90;;;;;;5052871;28;20439;-84
2022/03/31 04:56:17;;;;;;;16.83;7.90;;;2.50;99.90;;;;;;5053536;28;20865;-84
2022/03/31 04:58:43;;;;;;;17.70;8.13;;;1.80;99.90;;;;;;5052456;28;20045;-84
2022/03/31 05:01:08;;;;;;;16.80;8.30;;;1.60;99.90;;;;;;5054220;28;20400;-84
2022/03/31 05:03:34;;;;;;;16.50;8.00;;;1.50;99.90;;;;;;5052909;28;20037;-84
2022/03/31 05:06:00;;;;;;;16.60;8.20;;;1.60;99.90;;;;;;5054181;28;20435;-84
2022/03/31 05:08:26;;;;;;;15.70;7.10;;;1.50;99.90;;;;;;5053583;28;20041;-84
2022/03/31 05:10:51;;;;;;;16.27;8.07;;;2.00;99.90;;;;;;5053313;28;20049;-84
2022/03/31 05:13:17;;;;;;;18.90;9.47;;;1.40;99.90;;;;;;5052903;28;20037;-83
2022/03/31 05:15:43;;;;;;;17.47;8.23;;;1.40;99.90;;;;;;5052307;28;20099;-83
2022/03/31 05:18:08;;;;;;;15.60;8.07;;;1.40;99.90;;;;;;5051689;28;20086;-83
2022/03/31 05:20:34;;;;;;;17.30;8.20;;;1.40;99.90;;;;;;5053569;28;20040;-83
2022/03/31 05:23:00;;;;;;;17.43;8.80;;;1.30;99.90;;;;;;5053952;28;20468;-83
2022/03/31 05:25:25;;;;;;;17.33;8.77;;;2.10;99.90;;;;;;5051937;28;20057;-83
2022/03/31 05:27:51;;;;;;;16.97;8.83;;;2.20;99.90;;;;;;5053920;28;20059;-84
2022/03/31 05:30:19;;;;;;;18.27;9.27;;;2.30;99.90;;;;;;5053277;28;20555;-83
2022/03/31 05:32:46;;;;;;;18.97;8.93;;;1.40;99.90;;;;;;5052451;28;20554;-83
2022/03/31 05:35:13;;;;;;;16.60;8.63;;;1.20;99.90;;;;;;5052309;28;20048;-84
2022/03/31 05:37:40;;;;;;;16.80;8.97;;;1.20;99.90;;;;;;5053322;28;20033;-83
2022/03/31 05:40:07;;;;;;;17.50;9.10;;;1.20;99.90;;;;;;5053010;28;20072;-84
2022/03/31 05:42:34;;;;;;;18.63;9.87;;;1.20;99.90;;;;;;5053294;28;20041;-82
2022/03/31 05:45:02;;;;;;;18.97;9.90;;;1.90;99.90;;;;;;5053677;28;20060;-85
2022/03/31 05:47:27;;;;;;;19.87;9.80;;;2.40;99.90;;;;;;5052488;28;20168;-84
2022/03/31 05:49:53;;;;;;;18.23;9.63;;;1.30;99.90;;;;;;5053428;28;20491;-87
2022/03/31 05:52:20;;;;;;;20.93;10.30;;;2.00;99.90;;;;;;5051900;28;20048;-87
2022/03/31 05:54:46;;;;;;;21.17;10.97;;;1.30;99.90;;;;;;5053355;28;20042;-84
2022/03/31 05:57:12;;;;;;;20.03;10.70;;;1.40;99.90;;;;;;5053007;28;20514;-85
2022/03/31 05:59:37;;;;;;;18.57;9.57;;;1.40;99.90;;;;;;5052284;28;20848;-85
2022/03/31 06:02:03;;;;;;;19.23;9.17;;;1.80;99.90;;;;;;5051781;28;20496;-85
2022/03/31 06:04:29;;;;;;;20.80;10.40;;;1.40;99.90;;;;;;5051727;28;20047;-85
2022/03/31 06:06:54;;;;;;;20.40;10.70;;;1.40;99.90;;;;;;5050324;28;20048;-86
2022/03/31 06:09:20;;;;;;;21.33;10.83;;;1.40;99.90;;;;;;5048695;28;20124;-89
2022/03/31 06:11:56;;;;;;;20.47;10.83;;;1.40;99.90;;;;;;5062520;28;20076;-89
2022/03/31 06:14:30;;;;;;;22.67;11.27;;;1.40;99.90;;;;;;5014184;28;20042;-89
2022/03/31 06:16:56;;;;;;;20.50;9.88;;;2.10;99.90;;;;;;5015480;28;20140;-90
2022/03/31 06:19:25;;;;;;;22.00;11.43;;;1.20;99.90;;;;;;5048939;22;20073;-91
2022/03/31 06:23:00;;;;;;;22.23;10.83;;;1.90;99.90;;;;;;5032574;28;20721;-89
2022/03/31 06:26:15;;;;;;;22.77;11.00;;;0.80;99.90;;;;;;5032718;28;20132;-88
2022/03/31 06:30:04;;;;;;;22.07;10.93;;;0.90;99.90;;;;;;5031801;28;20129;-90
2022/03/31 06:33:21;;;;;;;21.83;11.47;;;1.70;99.90;;;;;;5030984;28;20440;-89
2022/03/31 06:35:49;;;;;;;21.00;10.43;;;1.60;99.90;;;;;;5031873;28;20555;-88
2022/03/31 06:38:15;;;;;;;21.70;11.43;;;1.30;99.90;;;;;;5032564;28;20128;-88
2022/03/31 06:43:51;;;;;;;19.60;10.90;;;2.20;99.90;;;;;;4994078;28;20078;-89
2022/03/31 06:46:17;;;;;;;21.43;11.40;;;2.50;99.90;;;;;;5022380;28;20154;-89
2022/03/31 06:48:47;;;;;;;21.63;10.90;;;2.20;99.90;;;;;;5031250;28;20381;-89
2022/03/31 06:51:13;;;;;;;22.87;11.90;;;1.40;99.90;;;;;;5026572;28;20029;-85
2022/03/31 06:53:40;;;;;;;22.23;11.67;;;1.40;99.90;;;;;;5031879;28;20051;-86
2022/03/31 06:56:10;;;;;;;24.20;12.63;;;3.10;99.90;;;;;;5035819;28;20051;-85
2022/03/31 06:58:36;;;;;;;23.70;12.17;;;1.40;99.90;;;;;;5036741;28;20444;-85
2022/03/31 07:01:03;;;;;;;23.83;12.60;;;1.50;99.90;;;;;;5035189;28;20045;-83
2022/03/31 07:03:30;;;;;;;25.67;12.97;;;1.50;99.90;;;;;;5035483;28;20041;-83
2022/03/31 07:05:56;;;;;;;24.63;13.77;;;1.50;99.90;;;;;;5036388;28;20570;-83
2022/03/31 07:08:21;;;;;;;24.40;12.77;;;1.50;99.90;;;;;;5035092;28;20045;-83
2022/03/31 07:10:47;;;;;;;25.00;12.83;;;1.60;99.90;;;;;;5035878;28;20485;-83
2022/03/31 07:13:13;;;;;;;28.33;14.00;;;2.50;99.90;;;;;;5036083;28;20041;-83
2022/03/31 07:15:40;;;;;;;27.03;13.67;;;1.80;99.90;;;;;;5036230;28;20041;-83
2022/03/31 07:18:06;;;;;;;27.13;13.13;;;1.80;99.90;;;;;;5035392;28;20055;-82
2022/03/31 07:20:33;;;;;;;26.17;12.73;;;1.80;99.90;;;;;;5034647;28;20471;-83
2022/03/31 07:22:59;;;;;;;27.37;13.97;;;2.90;99.90;;;;;;5036361;28;20072;-84
2022/03/31 07:25:25;;;;;;;27.93;13.50;;;1.80;99.90;;;;;;5035467;28;20052;-84
2022/03/31 07:27:51;;;;;;;29.03;14.40;;;1.80;99.90;;;;;;5036548;28;20041;-84
2022/03/31 07:30:19;;;;;;;29.90;14.70;;;1.80;99.90;;;;;;5035419;28;20084;-85
2022/03/31 07:32:51;;;;;;;30.37;14.77;;;2.10;99.90;;;;;;5029441;28;20573;-86
2022/03/31 07:35:18;;;;;;;32.13;16.03;;;1.90;99.90;;;;;;5030235;28;20056;-85
2022/03/31 07:37:44;;;;;;;29.10;14.57;;;2.00;99.90;;;;;;5032659;28;20042;-85
2022/03/31 07:40:16;;;;;;;27.43;14.57;;;2.00;99.90;;;;;;5025826;28;20507;-84
2022/03/31 07:42:51;;;;;;;31.00;15.50;;;1.90;99.90;;;;;;5039246;28;20059;-85
2022/03/31 07:45:17;;;;;;;34.67;14.80;;;1.90;99.90;;;;;;5015181;28;20065;-85
2022/03/31 07:47:43;;;;;;;31.20;15.13;;;2.00;99.90;;;;;;5017118;28;20057;-92
2022/03/31 07:50:11;;;;;;;35.43;15.67;;;2.50;99.90;;;;;;5015428;28;20163;-87
2022/03/31 07:52:37;;;;;;;31.03;16.23;;;2.20;99.90;;;;;;5014456;28;20046;-85
2022/03/31 07:55:04;;;;;;;32.93;15.13;;;3.40;99.90;;;;;;5014699;28;20057;-84
2022/03/31 07:57:30;;;;;;;33.37;16.27;;;2.30;99.90;;;;;;5015822;28;20046;-85
2022/03/31 07:59:56;;;;;;;32.13;15.80;;;2.50;99.90;;;;;;5015199;28;20171;-84
2022/03/31 08:02:31;;;;;;;31.77;15.63;;;2.30;99.90;;;;;;5015270;28;20121;-85
2022/03/31 08:05:14;;;;;;;29.53;15.17;;;2.60;99.90;;;;;;5015197;28;20057;-86
2022/03/31 08:07:43;;;;;;;30.33;15.93;;;2.10;99.90;;;;;;5013924;28;20061;-85
2022/03/31 08:10:12;;;;;;;28.37;15.47;;;2.10;99.90;;;;;;5015494;28;20550;-85
2022/03/31 08:12:46;;;;;;;33.27;16.40;;;2.60;99.90;;;;;;5027505;28;20041;-86
2022/03/31 08:15:15;;;;;;;30.00;15.27;;;2.30;99.90;;;;;;5031728;28;20045;-86
2022/03/31 08:17:46;;;;;;;27.73;15.50;;;2.30;99.90;;;;;;5029871;28;20068;-84
2022/03/31 08:20:13;;;;;;;29.43;14.90;;;2.40;99.90;;;;;;5030865;28;20068;-84
2022/03/31 08:22:39;;;;;;;26.00;14.37;;;2.50;99.90;;;;;;5027552;28;20041;-85
2022/03/31 08:25:09;;;;;;;24.07;12.90;;;3.50;99.90;;;;;;5028934;28;20412;-85
2022/03/31 08:27:35;;;;;;;25.27;13.47;;;1.60;99.90;;;;;;5027515;28;20045;-86
2022/03/31 08:30:05;;;;;;;24.93;12.87;;;2.40;99.90;;;;;;5028837;28;22523;-85
2022/03/31 08:32:35;;;;;;;25.30;13.30;;;2.40;99.90;;;;;;5032397;28;20508;-85
2022/03/31 08:35:02;;;;;;;25.67;13.40;;;2.50;99.90;;;;;;5029596;28;20213;-85
2022/03/31 08:37:28;;;;;;;26.87;13.90;;;2.50;99.90;;;;;;5030922;28;20046;-84
2022/03/31 08:39:53;;;;;;;24.83;13.50;;;2.50;99.90;;;;;;5029450;28;20049;-84
2022/03/31 08:42:19;;;;;;;22.03;12.13;;;2.60;99.90;;;;;;5030847;28;20038;-85
2022/03/31 08:44:49;;;;;;;22.87;12.07;;;2.50;99.90;;;;;;5031752;28;20382;-85
2022/03/31 08:47:17;;;;;;;21.63;10.63;;;2.50;99.90;;;;;;5031241;28;20049;-85
2022/03/31 08:49:46;;;;;;;19.73;10.50;;;2.50;99.90;;;;;;5019543;28;20077;-85
2022/03/31 08:52:12;;;;;;;20.70;10.67;;;2.50;99.90;;;;;;5031851;28;20041;-86
2022/03/31 08:54:40;;;;;;;20.20;10.23;;;2.50;99.90;;;;;;5031381;28;20519;-86
2022/03/31 08:57:16;;;;;;;15.50;8.37;;;2.50;99.90;;;;;;5030464;28;20045;-88
2022/03/31 08:59:43;;;;;;;12.53;6.70;;;2.30;99.90;;;;;;5027829;28;20033;-90
2022/03/31 09:02:22;;;;;;;13.00;7.37;;;2.90;99.90;;;;;;5039214;22;20459;-88
2022/03/31 09:05:01;;;;;;;12.40;6.70;;;2.50;99.90;;;;;;5025815;28;20128;-88
2022/03/31 09:07:29;;;;;;;12.30;6.40;;;1.80;99.90;;;;;;5034241;28;20041;-88
2022/03/31 09:10:01;;;;;;;12.47;6.40;;;2.50;99.90;;;;;;5015905;28;20080;-88
2022/03/31 09:12:41;;;;;;;12.63;6.50;;;3.60;99.90;;;;;;5033742;28;20048;-89
2022/03/31 09:15:19;;;;;;;12.50;6.57;;;2.50;99.90;;;;;;5016538;28;20073;-88
2022/03/31 09:17:45;;;;;;;12.43;6.97;;;2.20;99.90;;;;;;5015008;28;20049;-89
2022/03/31 09:20:17;;;;;;;12.07;6.37;;;3.60;99.90;;;;;;5033781;28;20129;-89
2022/03/31 09:22:50;;;;;;;12.23;6.33;;;3.80;99.90;;;;;;5034019;28;20080;-88
2022/03/31 09:25:26;;;;;;;13.07;6.93;;;2.30;99.90;;;;;;5015232;28;20124;-88
2022/03/31 09:27:52;;;;;;;11.80;6.33;;;2.10;99.90;;;;;;5016330;28;20045;-85
2022/03/31 09:30:19;;;;;;;12.27;6.37;;;2.30;99.90;;;;;;5014323;28;20378;-86
2022/03/31 09:32:53;;;;;;;13.97;7.27;;;2.20;99.90;;;;;;5034100;23;20057;-85
2022/03/31 09:35:21;;;;;;;12.33;6.17;;;2.20;99.90;;;;;;5033158;28;20136;-84
2022/03/31 09:37:49;;;;;;;11.30;5.83;;;2.10;99.90;;;;;;5032840;28;20060;-85
2022/03/31 09:40:19;;;;;;;11.23;5.30;;;2.00;99.90;;;;;;5030569;28;20435;-83
2022/03/31 09:43:00;;;;;;;11.60;5.30;;;1.90;99.90;;;;;;5033360;28;20042;-86
2022/03/31 09:45:39;;;;;;;11.53;5.57;;;1.80;99.90;;;;;;5031252;28;20033;-84
2022/03/31 09:48:15;;;;;;;11.50;5.37;;;1.60;99.90;;;;;;5032164;28;20052;-86
2022/03/31 09:50:42;;;;;;;13.93;5.80;;;1.50;99.90;;;;;;5031133;28;20037;-84
2022/03/31 09:53:08;;;;;;;11.87;5.47;;;1.70;99.90;;;;;;5032384;28;20049;-86
2022/03/31 09:55:35;;;;;;;11.67;5.40;;;1.40;99.90;;;;;;5032395;28;20065;-85
2022/03/31 09:58:02;;;;;;;11.83;5.20;;;1.40;99.90;;;;;;5024230;28;20033;-87
2022/03/31 10:00:28;;;;;;;11.63;5.20;;;1.20;99.90;;;;;;5018534;28;20046;-87
2022/03/31 10:02:55;;;;;;;11.53;5.37;;;1.20;99.90;;;;;;5020237;28;20034;-87
2022/03/31 10:05:21;;;;;;;11.73;4.97;;;1.10;99.90;;;;;;5026311;28;20071;-88
2022/03/31 10:07:50;;;;;;;11.33;5.20;;;2.70;99.90;;;;;;5018298;28;20489;-88
2022/03/31 10:10:16;;;;;;;11.37;5.10;;;1.00;99.90;;;;;;5023642;28;20069;-90
2022/03/31 10:12:55;;;;;;;11.40;5.37;;;0.90;99.90;;;;;;5033289;28;20069;-86
2022/03/31 10:15:30;;;;;;;11.80;5.27;;;1.00;99.90;;;;;;5033166;28;20049;-88
2022/03/31 10:17:59;;;;;;;11.80;5.20;;;0.90;99.90;;;;;;5032484;28;20389;-88
2022/03/31 10:20:25;;;;;;;10.63;4.77;;;0.90;99.90;;;;;;5028084;28;20076;-84
2022/03/31 10:25:47;;;;;;;11.30;5.10;;;0.90;99.90;;;;;;5030708;28;20077;-84
2022/03/31 10:28:20;;;;;;;11.13;4.93;;;0.90;99.90;;;;;;5030927;28;20037;-84
2022/03/31 10:30:56;;;;;;;11.80;5.03;;;0.90;99.90;;;;;;5031132;28;20049;-83
2022/03/31 10:33:34;;;;;;;10.90;5.10;;;1.00;99.90;;;;;;5051674;28;20492;-84
2022/03/31 10:36:21;;;;;;;19.57;12.13;;;1.00;99.90;;;;;;5034560;28;20480;-84
2022/03/31 10:39:15;;;;;;;12.67;6.70;;;1.00;99.90;;;;;;5035156;28;20546;-86
2022/03/31 10:41:42;;;;;;;13.83;7.43;;;1.00;99.90;;;;;;5051821;28;20071;-85
2022/03/31 10:44:14;;;;;;;13.97;7.47;;;1.10;99.90;;;;;;5052573;28;20111;-82
2022/03/31 10:46:42;;;;;;;12.27;6.40;;;1.20;99.90;;;;;;5052574;28;20053;-83
2022/03/31 10:49:12;;;;;;;16.23;9.43;;;1.20;99.90;;;;;;5050874;28;20037;-84
2022/03/31 10:51:41;;;;;;;14.10;7.50;;;1.30;99.90;;;;;;5051676;28;20501;-84
2022/03/31 10:54:10;;;;;;;13.13;6.93;;;1.30;99.90;;;;;;5052103;28;20045;-84
2022/03/31 10:56:36;;;;;;;20.57;11.47;;;1.20;99.90;;;;;;5032718;28;20065;-85
2022/03/31 10:59:04;;;;;;;14.20;8.80;;;1.20;99.90;;;;;;5049368;28;20397;-84
2022/03/31 11:01:33;;;;;;;14.10;7.00;;;1.40;99.90;;;;;;5051729;28;20056;-85
2022/03/31 11:04:10;;;;;;;14.57;8.10;;;1.40;99.90;;;;;;5050652;28;20040;-84
2022/03/31 11:06:51;;;;;;;14.17;7.17;;;1.60;99.90;;;;;;5051054;28;20051;-85
2022/03/31 11:09:27;;;;;;;13.97;7.53;;;1.70;99.90;;;;;;5050628;28;20060;-85
2022/03/31 11:11:56;;;;;;;16.30;9.37;;;1.70;99.90;;;;;;5052195;28;20171;-85
2022/03/31 11:14:22;;;;;;;13.53;6.67;;;1.70;99.90;;;;;;5051551;28;20040;-86
2022/03/31 11:16:50;;;;;;;13.50;6.90;;;1.80;99.90;;;;;;5051262;28;20044;-85
2022/03/31 11:19:19;;;;;;;14.60;7.43;;;1.80;99.90;;;;;;5046574;28;20037;-85
2022/03/31 11:21:46;;;;;;;14.20;7.43;;;1.80;99.90;;;;;;5049300;28;20558;-85
2022/03/31 11:24:12;;;;;;;16.97;7.83;;;1.80;99.90;;;;;;5050908;28;20384;-85
2022/03/31 11:26:46;;;;;;;13.87;7.23;;;1.80;99.90;;;;;;5051811;28;20037;-85
2022/03/31 11:29:13;;;;;;;16.45;9.55;;;1.80;99.90;;;;;;5051719;28;20094;-85
2022/03/31 11:31:56;;;;;;;14.17;8.17;;;2.00;99.90;;;;;;5051273;28;20057;-83
2022/03/31 11:34:25;;;;;;;16.53;8.60;;;2.00;99.90;;;;;;5052095;28;20128;-84
2022/03/31 11:36:52;;;;;;;16.80;8.17;;;2.20;99.90;;;;;;5051691;28;20044;-85
2022/03/31 11:39:29;;;;;;;16.80;8.60;;;2.20;99.90;;;;;;5051265;28;20045;-85
2022/03/31 11:42:00;;;;;;;17.13;8.70;;;2.90;99.90;;;;;;5037867;28;20469;-87
2022/03/31 11:44:30;;;;;;;17.40;9.80;;;2.30;99.90;;;;;;5055123;28;20430;-85
2022/03/31 11:46:55;;;;;;;16.33;8.77;;;2.40;99.90;;;;;;5055634;28;20067;-87
2022/03/31 11:49:23;;;;;;;20.63;12.17;;;2.20;99.90;;;;;;5055768;28;20032;-85
2022/03/31 11:52:05;;;;;;;19.03;10.13;;;3.10;99.90;;;;;;5054539;28;20098;-84
2022/03/31 11:54:31;;;;;;;17.40;9.10;;;2.20;99.90;;;;;;5055323;28;20127;-84
2022/03/31 11:57:07;;;;;;;20.23;9.80;;;2.30;99.90;;;;;;5055840;28;20095;-85
2022/03/31 11:59:34;;;;;;;22.70;12.23;;;2.40;99.90;;;;;;5054488;28;20049;-85
2022/03/31 12:02:00;;;;;;;21.90;11.50;;;3.40;99.90;;;;;;5054766;28;20036;-85
2022/03/31 12:04:29;;;;;;;26.30;13.63;;;2.40;99.90;;;;;;5053304;28;20056;-84
2022/03/31 12:06:57;;;;;;;24.33;13.13;;;2.40;99.90;;;;;;5054237;28;20041;-85
2022/03/31 12:09:40;;;;;;;23.30;12.57;;;2.30;99.90;;;;;;5036613;28;20045;-84
2022/03/31 12:12:13;;;;;;;27.40;14.53;;;2.30;99.90;;;;;;5035558;28;20107;-84
2022/03/31 12:14:50;;;;;;;26.33;15.20;;;2.20;99.90;;;;;;5052689;28;20064;-85
2022/03/31 12:17:18;;;;;;;32.33;16.70;;;2.60;99.90;;;;;;5036941;28;20437;-85
2022/03/31 12:19:44;;;;;;;62.27;32.50;;;2.60;99.90;;;;;;5036196;28;20049;-86
2022/03/31 12:22:17;;;;;;;36.87;18.20;;;2.70;99.90;;;;;;5054955;28;20095;-86
2022/03/31 12:24:50;;;;;;;35.87;18.23;;;2.60;99.90;;;;;;5053856;28;20052;-83
2022/03/31 12:27:17;;;;;;;34.80;16.93;;;3.30;99.90;;;;;;5053277;28;20037;-85
2022/03/31 12:29:44;;;;;;;43.43;21.33;;;3.00;99.90;;;;;;5034121;28;20076;-91
2022/03/31 12:32:14;;;;;;;42.90;22.30;;;3.40;99.90;;;;;;5020567;28;20052;-86
2022/03/31 12:35:00;;;;;;;45.27;22.67;;;3.20;99.90;;;;;;5051572;28;20048;-85
2022/03/31 12:37:31;;;;;;;47.17;22.30;;;3.10;99.90;;;;;;5052349;28;20084;-85
2022/03/31 12:39:57;;;;;;;48.43;25.60;;;3.20;99.90;;;;;;5054220;28;20036;-89
2022/03/31 12:42:27;;;;;;;51.47;28.27;;;3.30;99.90;;;;;;5053396;28;20388;-86
2022/03/31 12:44:53;;;;;;;41.90;21.97;;;3.40;99.90;;;;;;5054976;28;20037;-83
2022/03/31 12:47:21;;;;;;;43.60;22.67;;;3.40;99.90;;;;;;5053344;28;20136;-84
2022/03/31 12:49:47;;;;;;;44.37;21.63;;;3.40;99.90;;;;;;5036858;28;20373;-84
2022/03/31 12:52:19;;;;;;;44.37;23.10;;;3.40;99.90;;;;;;5053280;28;20056;-87
2022/03/31 12:54:59;;;;;;;40.87;21.13;;;3.50;99.90;;;;;;5036279;28;20049;-92
2022/03/31 12:57:26;;;;;;;40.20;21.90;;;4.50;99.90;;;;;;5054044;28;20116;-88
2022/03/31 13:00:12;;;;;;;30.10;17.17;;;4.00;99.90;;;;;;5046912;28;20032;-90
2022/03/31 13:02:39;;;;;;;41.90;22.97;;;3.60;99.90;;;;;;5047481;28;20061;-90